Time,TemperatureF,DewpointF,PressureIn,WindDirection,WindDirectionDegrees,WindSpeedMPH,WindSpeedGustMPH,Humidity,HourlyPrecipIn,Conditions,Clouds,dailyrainin,SoftwareType,DateUTC
2013-01-30 00:00:00,43.9,40.0,30.22,WNW,292,0.0,0.0,85,0.00,,,0.00,Rainwise IP-100,2013-01-30 08:00:00,
2013-01-30 00:05:00,44.0,40.0,30.22,WNW,292,0.0,2.1,85,0.00,,,0.00,Rainwise IP-100,2013-01-30 08:05:00,
2013-01-30 00:10:00,44.3,40.0,30.22,WNW,292,0.0,1.6,85,0.00,,,0.00,Rainwise IP-100,2013-01-30 08:10:00,
2013-01-30 00:15:00,43.8,40.0,30.22,WNW,292,1.4,0.0,85,0.00,,,0.00,Rainwise IP-100,2013-01-30 08:15:00,
2013-01-30 00:20:00,43.3,39.0,30.22,WNW,292,0.0,2.1,86,0.00,,,0.00,Rainwise IP-100,2013-01-30 08:20:00,
2013-01-30 00:25:00,43.4,39.0,30.22,WNW,292,1.6,1.9,86,0.00,,,0.00,Rainwise IP-100,2013-01-30 08:25:00,
2013-01-30 00:30:00,44.3,40.0,30.22,WNW,292,0.0,2.3,85,0.00,,,0.00,Rainwise IP-100,2013-01-30 08:30:00,
2013-01-30 00:35:00,44.3,40.0,30.22,WNW,292,0.0,1.2,85,0.00,,,0.00,Rainwise IP-100,2013-01-30 08:35:00,
2013-01-30 00:40:00,43.5,40.0,30.22,WNW,292,0.0,1.6,86,0.00,,,0.00,Rainwise IP-100,2013-01-30 08:40:00,
2013-01-30 00:45:00,43.1,39.0,30.21,WNW,292,0.0,0.0,86,0.00,,,0.00,Rainwise IP-100,2013-01-30 08:45:00,
2013-01-30 00:50:00,42.6,39.0,30.21,WNW,292,0.0,0.0,87,0.00,,,0.00,Rainwise IP-100,2013-01-30 08:50:00,
2013-01-30 00:55:00,42.5,40.0,30.22,WNW,292,1.2,2.6,88,0.00,,,0.00,Rainwise IP-100,2013-01-30 08:55:00,
2013-01-30 00:59:00,43.4,39.0,30.21,WNW,292,2.1,2.6,87,0.00,,,0.00,Rainwise IP-100,2013-01-30 08:59:00,
2013-01-30 01:04:00,44.9,40.0,30.22,WNW,292,0.0,2.3,84,0.00,,,0.00,Rainwise IP-100,2013-01-30 09:04:00,
2013-01-30 01:09:00,45.1,40.0,30.21,WNW,292,0.0,0.0,84,0.00,,,0.00,Rainwise IP-100,2013-01-30 09:09:00,
2013-01-30 01:14:00,44.5,40.0,30.22,WNW,292,0.0,0.0,84,0.00,,,0.00,Rainwise IP-100,2013-01-30 09:14:00,
2013-01-30 01:19:00,43.2,39.0,30.22,WNW,292,0.0,0.0,86,0.00,,,0.00,Rainwise IP-100,2013-01-30 09:19:00,
2013-01-30 01:25:00,42.3,38.0,30.22,WNW,292,1.2,1.4,87,0.00,,,0.00,Rainwise IP-100,2013-01-30 09:25:00,
2013-01-30 01:30:00,41.6,39.0,30.22,WNW,292,0.0,1.4,88,0.00,,,0.00,Rainwise IP-100,2013-01-30 09:30:00,
2013-01-30 01:35:00,41.4,38.0,30.22,WNW,292,0.0,1.6,89,0.00,,,0.00,Rainwise IP-100,2013-01-30 09:35:00,
2013-01-30 01:40:00,41.7,39.0,30.22,WNW,292,0.0,1.4,90,0.00,,,0.00,Rainwise IP-100,2013-01-30 09:40:00,
2013-01-30 01:45:00,42.1,39.0,30.22,WNW,292,0.0,0.0,90,0.00,,,0.00,Rainwise IP-100,2013-01-30 09:45:00,
2013-01-30 01:50:00,42.4,39.0,30.22,WNW,292,0.0,1.9,89,0.00,,,0.00,Rainwise IP-100,2013-01-30 09:50:00,
2013-01-30 01:55:00,43.2,40.0,30.22,WNW,292,1.4,3.0,88,0.00,,,0.00,Rainwise IP-100,2013-01-30 09:55:00,
2013-01-30 02:00:00,44.5,41.0,30.23,WNW,292,0.0,2.3,86,0.00,,,0.00,Rainwise IP-100,2013-01-30 10:00:00,
2013-01-30 02:05:00,44.7,41.0,30.23,WNW,292,0.0,0.0,85,0.00,,,0.00,Rainwise IP-100,2013-01-30 10:05:00,
2013-01-30 02:10:00,44.5,40.0,30.23,WNW,292,0.0,1.9,84,0.00,,,0.00,Rainwise IP-100,2013-01-30 10:10:00,
2013-01-30 02:16:00,44.4,39.0,30.23,WNW,292,0.0,0.0,84,0.00,,,0.00,Rainwise IP-100,2013-01-30 10:16:00,
2013-01-30 02:21:00,43.7,40.0,30.23,WNW,292,0.0,1.2,85,0.00,,,0.00,Rainwise IP-100,2013-01-30 10:21:00,
2013-01-30 02:26:00,42.9,39.0,30.23,WNW,292,0.0,0.0,87,0.00,,,0.00,Rainwise IP-100,2013-01-30 10:26:00,
2013-01-30 02:31:00,42.4,39.0,30.23,WNW,292,0.0,1.2,88,0.00,,,0.00,Rainwise IP-100,2013-01-30 10:31:00,
2013-01-30 02:36:00,42.1,39.0,30.23,WNW,292,0.0,0.0,89,0.00,,,0.00,Rainwise IP-100,2013-01-30 10:36:00,
2013-01-30 02:41:00,41.8,39.0,30.23,WNW,292,0.0,0.0,89,0.00,,,0.00,Rainwise IP-100,2013-01-30 10:41:00,
2013-01-30 02:46:00,41.4,38.0,30.23,WNW,292,0.0,0.0,90,0.00,,,0.00,Rainwise IP-100,2013-01-30 10:46:00,
2013-01-30 02:51:00,40.9,38.0,30.23,WNW,292,0.0,0.0,90,0.00,,,0.00,Rainwise IP-100,2013-01-30 10:51:00,
2013-01-30 02:56:00,40.6,39.0,30.24,WNW,292,0.0,0.0,91,0.00,,,0.00,Rainwise IP-100,2013-01-30 10:56:00,
2013-01-30 03:01:00,40.4,38.0,30.23,WNW,292,0.0,0.0,92,0.00,,,0.00,Rainwise IP-100,2013-01-30 11:01:00,
2013-01-30 03:06:00,40.5,39.0,30.24,WNW,292,0.0,0.0,93,0.00,,,0.00,Rainwise IP-100,2013-01-30 11:06:00,
2013-01-30 03:11:00,40.4,38.0,30.24,WNW,292,0.0,0.0,92,0.00,,,0.00,Rainwise IP-100,2013-01-30 11:11:00,
2013-01-30 03:16:00,40.2,38.0,30.24,WNW,292,0.0,0.0,92,0.00,,,0.00,Rainwise IP-100,2013-01-30 11:16:00,
2013-01-30 03:21:00,40.1,38.0,30.24,WNW,292,0.0,0.0,93,0.00,,,0.00,Rainwise IP-100,2013-01-30 11:21:00,
2013-01-30 03:26:00,40.0,38.0,30.24,WNW,292,0.0,0.0,93,0.00,,,0.00,Rainwise IP-100,2013-01-30 11:26:00,
2013-01-30 03:31:00,39.7,38.0,30.24,WNW,292,0.0,0.0,93,0.00,,,0.00,Rainwise IP-100,2013-01-30 11:31:00,
2013-01-30 03:36:00,39.5,39.0,30.24,WNW,292,0.0,0.0,94,0.00,,,0.00,Rainwise IP-100,2013-01-30 11:36:00,
2013-01-30 03:41:00,39.6,39.0,30.24,WNW,292,0.0,0.0,94,0.00,,,0.00,Rainwise IP-100,2013-01-30 11:41:00,
2013-01-30 03:46:00,39.7,39.0,30.25,WNW,292,0.0,0.0,95,0.00,,,0.00,Rainwise IP-100,2013-01-30 11:46:00,
2013-01-30 03:51:00,39.5,39.0,30.24,WNW,292,0.0,0.0,95,0.00,,,0.00,Rainwise IP-100,2013-01-30 11:51:00,
2013-01-30 03:56:00,39.5,39.0,30.24,WNW,292,1.4,1.9,95,0.00,,,0.00,Rainwise IP-100,2013-01-30 11:56:00,
2013-01-30 04:01:00,39.9,39.0,30.24,WNW,292,0.0,1.6,94,0.00,,,0.00,Rainwise IP-100,2013-01-30 12:01:00,
2013-01-30 04:06:00,39.9,39.0,30.25,WNW,292,0.0,0.0,94,0.00,,,0.00,Rainwise IP-100,2013-01-30 12:06:00,
2013-01-30 04:11:00,39.6,39.0,30.25,WNW,292,0.0,0.0,94,0.00,,,0.00,Rainwise IP-100,2013-01-30 12:11:00,
2013-01-30 04:16:00,40.0,39.0,30.25,WNW,292,1.2,2.3,95,0.00,,,0.00,Rainwise IP-100,2013-01-30 12:16:00,
2013-01-30 04:21:00,41.4,39.0,30.25,WNW,292,0.0,1.9,93,0.00,,,0.00,Rainwise IP-100,2013-01-30 12:21:00,
2013-01-30 04:26:00,42.1,40.0,30.25,WNW,292,0.0,1.2,92,0.00,,,0.00,Rainwise IP-100,2013-01-30 12:26:00,
2013-01-30 04:31:00,41.8,40.0,30.25,WNW,292,1.2,0.0,92,0.00,,,0.00,Rainwise IP-100,2013-01-30 12:31:00,
2013-01-30 04:36:00,41.6,40.0,30.25,WNW,292,0.0,1.9,92,0.00,,,0.00,Rainwise IP-100,2013-01-30 12:36:00,
2013-01-30 04:41:00,42.1,40.0,30.25,WNW,292,1.9,2.6,92,0.00,,,0.00,Rainwise IP-100,2013-01-30 12:41:00,
2013-01-30 04:46:00,43.6,41.0,30.25,WNW,292,0.0,2.8,89,0.00,,,0.00,Rainwise IP-100,2013-01-30 12:46:00,
2013-01-30 04:51:00,44.6,41.0,30.25,WNW,292,0.0,1.2,87,0.00,,,0.00,Rainwise IP-100,2013-01-30 12:51:00,
2013-01-30 04:56:00,44.3,40.0,30.26,WNW,292,0.0,1.2,87,0.00,,,0.00,Rainwise IP-100,2013-01-30 12:56:00,
2013-01-30 05:01:00,43.3,39.0,30.26,WNW,292,0.0,0.0,87,0.00,,,0.00,Rainwise IP-100,2013-01-30 13:01:00,
2013-01-30 05:06:00,42.2,39.0,30.25,WNW,292,0.0,0.0,88,0.00,,,0.00,Rainwise IP-100,2013-01-30 13:06:00,
2013-01-30 05:11:00,41.3,38.0,30.25,WNW,292,0.0,1.4,90,0.00,,,0.00,Rainwise IP-100,2013-01-30 13:11:00,
2013-01-30 05:16:00,41.4,39.0,30.25,WNW,292,1.6,1.9,91,0.00,,,0.00,Rainwise IP-100,2013-01-30 13:16:00,
2013-01-30 05:21:00,42.2,39.0,30.25,WNW,292,0.0,2.6,90,0.00,,,0.00,Rainwise IP-100,2013-01-30 13:21:00,
2013-01-30 05:26:00,42.3,39.0,30.25,WNW,292,0.0,0.0,90,0.00,,,0.00,Rainwise IP-100,2013-01-30 13:26:00,
2013-01-30 05:31:00,41.9,39.0,30.26,WNW,292,0.0,0.0,90,0.00,,,0.00,Rainwise IP-100,2013-01-30 13:31:00,
2013-01-30 05:36:00,41.4,39.0,30.25,WNW,292,0.0,1.6,91,0.00,,,0.00,Rainwise IP-100,2013-01-30 13:36:00,
2013-01-30 05:41:00,41.1,39.0,30.26,WNW,292,0.0,0.0,92,0.00,,,0.00,Rainwise IP-100,2013-01-30 13:41:00,
2013-01-30 05:46:00,40.8,39.0,30.26,WNW,292,0.0,0.0,92,0.00,,,0.00,Rainwise IP-100,2013-01-30 13:46:00,
2013-01-30 05:51:00,40.4,38.0,30.26,WNW,292,0.0,1.6,93,0.00,,,0.00,Rainwise IP-100,2013-01-30 13:51:00,
2013-01-30 05:56:00,40.4,38.0,30.26,WNW,292,0.0,1.9,93,0.00,,,0.00,Rainwise IP-100,2013-01-30 13:56:00,
2013-01-30 06:01:00,41.7,40.0,30.26,WNW,292,0.0,1.2,93,0.00,,,0.00,Rainwise IP-100,2013-01-30 14:01:00,
2013-01-30 06:06:00,42.6,40.0,30.26,WNW,292,0.0,0.0,91,0.00,,,0.00,Rainwise IP-100,2013-01-30 14:06:00,
2013-01-30 06:11:00,42.3,40.0,30.27,WNW,292,0.0,0.0,91,0.00,,,0.00,Rainwise IP-100,2013-01-30 14:11:00,
2013-01-30 06:16:00,41.9,40.0,30.27,WNW,292,0.0,0.0,91,0.00,,,0.00,Rainwise IP-100,2013-01-30 14:16:00,
2013-01-30 06:21:00,41.2,39.0,30.27,WNW,292,0.0,0.0,92,0.00,,,0.00,Rainwise IP-100,2013-01-30 14:21:00,
2013-01-30 06:26:00,40.5,39.0,30.27,WNW,292,0.0,0.0,92,0.00,,,0.00,Rainwise IP-100,2013-01-30 14:26:00,
2013-01-30 06:31:00,40.1,38.0,30.27,WNW,292,0.0,1.4,93,0.00,,,0.00,Rainwise IP-100,2013-01-30 14:31:00,
2013-01-30 06:36:00,39.9,39.0,30.27,WNW,292,0.0,0.0,94,0.00,,,0.00,Rainwise IP-100,2013-01-30 14:36:00,
2013-01-30 06:41:00,40.1,39.0,30.28,WNW,292,0.0,1.6,95,0.00,,,0.00,Rainwise IP-100,2013-01-30 14:41:00,
2013-01-30 06:46:00,40.1,39.0,30.28,WNW,292,0.0,0.0,94,0.00,,,0.00,Rainwise IP-100,2013-01-30 14:46:00,
2013-01-30 06:51:00,39.8,39.0,30.28,WNW,292,0.0,0.0,94,0.00,,,0.00,Rainwise IP-100,2013-01-30 14:51:00,
2013-01-30 06:56:00,39.7,39.0,30.29,WNW,292,0.0,0.0,95,0.00,,,0.00,Rainwise IP-100,2013-01-30 14:56:00,
2013-01-30 07:01:00,39.7,39.0,30.29,WNW,292,0.0,0.0,95,0.00,,,0.00,Rainwise IP-100,2013-01-30 15:01:00,
2013-01-30 07:06:00,39.5,39.0,30.29,WNW,292,0.0,1.2,95,0.00,,,0.00,Rainwise IP-100,2013-01-30 15:06:00,
2013-01-30 07:11:00,39.6,39.0,30.29,WNW,292,0.0,0.0,96,0.00,,,0.00,Rainwise IP-100,2013-01-30 15:11:00,
2013-01-30 07:16:00,39.8,39.0,30.30,WNW,292,0.0,0.0,96,0.00,,,0.00,Rainwise IP-100,2013-01-30 15:16:00,
2013-01-30 07:21:00,40.0,39.0,30.30,WNW,292,0.0,0.0,96,0.00,,,0.00,Rainwise IP-100,2013-01-30 15:21:00,
2013-01-30 07:26:00,40.3,39.0,30.30,WNW,292,0.0,0.0,96,0.00,,,0.00,Rainwise IP-100,2013-01-30 15:26:00,
2013-01-30 07:31:00,40.8,40.0,30.30,WNW,292,0.0,0.0,96,0.00,,,0.00,Rainwise IP-100,2013-01-30 15:31:00,
2013-01-30 07:36:00,41.3,40.0,30.30,WNW,292,0.0,0.0,95,0.00,,,0.00,Rainwise IP-100,2013-01-30 15:36:00,
2013-01-30 07:41:00,41.8,40.0,30.31,WNW,292,0.0,0.0,94,0.00,,,0.00,Rainwise IP-100,2013-01-30 15:41:00,
2013-01-30 07:46:00,42.4,40.0,30.31,WNW,292,0.0,0.0,94,0.00,,,0.00,Rainwise IP-100,2013-01-30 15:46:00,
2013-01-30 07:51:00,43.1,42.0,30.31,WNW,292,0.0,0.0,95,0.00,,,0.00,Rainwise IP-100,2013-01-30 15:51:00,
2013-01-30 07:56:00,43.9,43.0,30.32,WNW,292,0.0,0.0,95,0.00,,,0.00,Rainwise IP-100,2013-01-30 15:56:00,
2013-01-30 08:01:00,44.9,44.0,30.32,WNW,292,0.0,0.0,95,0.00,,,0.00,Rainwise IP-100,2013-01-30 16:01:00,
2013-01-30 08:06:00,45.9,44.0,30.32,WNW,292,0.0,0.0,94,0.00,,,0.00,Rainwise IP-100,2013-01-30 16:06:00,
2013-01-30 08:11:00,47.0,44.0,30.32,NW,315,0.0,0.0,90,0.00,,,0.00,Rainwise IP-100,2013-01-30 16:11:00,
2013-01-30 08:16:00,47.9,45.0,30.32,NW,315,0.0,0.0,87,0.00,,,0.00,Rainwise IP-100,2013-01-30 16:16:00,
2013-01-30 08:21:00,48.7,44.0,30.33,NNE,22,0.0,2.6,84,0.00,,,0.00,Rainwise IP-100,2013-01-30 16:21:00,
2013-01-30 08:26:00,49.4,44.0,30.32,NNE,22,0.0,0.0,83,0.00,,,0.00,Rainwise IP-100,2013-01-30 16:26:00,
2013-01-30 08:31:00,50.2,45.0,30.32,NNE,22,0.0,0.0,82,0.00,,,0.00,Rainwise IP-100,2013-01-30 16:31:00,
2013-01-30 08:36:00,51.1,45.0,30.32,ESE,112,0.0,2.1,80,0.00,,,0.00,Rainwise IP-100,2013-01-30 16:36:00,
2013-01-30 08:41:00,51.9,45.0,30.32,ESE,112,0.0,1.6,78,0.00,,,0.00,Rainwise IP-100,2013-01-30 16:41:00,
2013-01-30 08:46:00,52.7,45.0,30.32,ESE,112,0.0,1.4,76,0.00,,,0.00,Rainwise IP-100,2013-01-30 16:46:00,
2013-01-30 08:51:00,53.6,46.0,30.33,ESE,112,0.0,1.4,75,0.00,,,0.00,Rainwise IP-100,2013-01-30 16:51:00,
2013-01-30 08:56:00,54.5,46.0,30.33,ESE,112,0.0,1.6,73,0.00,,,0.00,Rainwise IP-100,2013-01-30 16:56:00,
2013-01-30 09:01:00,55.1,47.0,30.33,ESE,112,0.0,1.6,72,0.00,,,0.00,Rainwise IP-100,2013-01-30 17:01:00,
2013-01-30 09:06:00,55.5,47.0,30.34,ESE,112,0.0,0.0,71,0.00,,,0.00,Rainwise IP-100,2013-01-30 17:06:00,
2013-01-30 09:11:00,56.0,47.0,30.34,ESE,112,0.0,0.0,70,0.00,,,0.00,Rainwise IP-100,2013-01-30 17:11:00,
2013-01-30 09:16:00,56.9,47.0,30.34,SSE,157,1.6,2.3,68,0.00,,,0.00,Rainwise IP-100,2013-01-30 17:16:00,
2013-01-30 09:21:00,57.7,46.0,30.33,SSE,157,0.0,2.8,65,0.00,,,0.00,Rainwise IP-100,2013-01-30 17:21:00,
2013-01-30 09:26:00,58.4,46.0,30.34,SSE,157,0.0,0.0,63,0.00,,,0.00,Rainwise IP-100,2013-01-30 17:26:00,
2013-01-30 09:31:00,59.3,47.0,30.33,SSE,157,1.4,1.4,62,0.00,,,0.00,Rainwise IP-100,2013-01-30 17:31:00,
2013-01-30 09:36:00,59.8,46.0,30.33,South,180,1.9,2.3,60,0.00,,,0.00,Rainwise IP-100,2013-01-30 17:36:00,
2013-01-30 09:41:00,59.9,45.0,30.34,South,180,0.0,2.8,58,0.00,,,0.00,Rainwise IP-100,2013-01-30 17:41:00,
2013-01-30 09:46:00,59.8,45.0,30.33,SSW,202,1.2,3.5,58,0.00,,,0.00,Rainwise IP-100,2013-01-30 17:46:00,
2013-01-30 09:51:00,59.6,44.0,30.34,SSE,157,1.2,4.2,57,0.00,,,0.00,Rainwise IP-100,2013-01-30 17:51:00,
2013-01-30 09:56:00,60.0,45.0,30.34,SSW,202,2.1,4.9,57,0.00,,,0.00,Rainwise IP-100,2013-01-30 17:56:00,
2013-01-30 10:01:00,60.5,45.0,30.34,SSE,157,2.3,3.7,57,0.00,,,0.00,Rainwise IP-100,2013-01-30 18:01:00,
2013-01-30 10:06:00,60.3,45.0,30.34,SSW,202,2.1,6.1,56,0.00,,,0.00,Rainwise IP-100,2013-01-30 18:06:00,
2013-01-30 10:11:00,60.3,45.0,30.34,SSW,202,0.0,4.2,56,0.00,,,0.00,Rainwise IP-100,2013-01-30 18:11:00,
2013-01-30 10:16:00,61.0,45.0,30.34,South,180,2.6,4.0,56,0.00,,,0.00,Rainwise IP-100,2013-01-30 18:16:00,
2013-01-30 10:21:00,61.7,45.0,30.34,South,180,2.6,3.7,55,0.00,,,0.00,Rainwise IP-100,2013-01-30 18:21:00,
2013-01-30 10:26:00,62.3,46.0,30.34,North,360,2.1,2.6,54,0.00,,,0.00,Rainwise IP-100,2013-01-30 18:26:00,
2013-01-30 10:31:00,62.4,45.0,30.33,North,360,2.8,4.4,53,0.00,,,0.00,Rainwise IP-100,2013-01-30 18:31:00,
2013-01-30 10:36:00,61.8,45.0,30.33,ESE,112,3.3,3.5,54,0.00,,,0.00,Rainwise IP-100,2013-01-30 18:36:00,
2013-01-30 10:41:00,61.5,45.0,30.33,SSW,202,3.5,5.6,55,0.00,,,0.00,Rainwise IP-100,2013-01-30 18:41:00,
2013-01-30 10:46:00,61.1,45.0,30.33,SSE,157,2.8,5.4,55,0.00,,,0.00,Rainwise IP-100,2013-01-30 18:46:00,
2013-01-30 10:51:00,61.2,45.0,30.32,North,360,2.8,3.3,55,0.00,,,0.00,Rainwise IP-100,2013-01-30 18:51:00,
2013-01-30 10:56:00,61.6,45.0,30.32,NNE,22,0.0,4.0,55,0.00,,,0.00,Rainwise IP-100,2013-01-30 18:56:00,
2013-01-30 11:01:00,61.7,45.0,30.32,ESE,112,1.4,2.6,55,0.00,,,0.00,Rainwise IP-100,2013-01-30 19:01:00,
2013-01-30 11:06:00,62.0,45.0,30.32,SSE,157,0.0,1.6,54,0.00,,,0.00,Rainwise IP-100,2013-01-30 19:06:00,
2013-01-30 11:11:00,62.5,46.0,30.32,South,180,2.6,4.4,54,0.00,,,0.00,Rainwise IP-100,2013-01-30 19:11:00,
2013-01-30 11:16:00,62.7,45.0,30.32,SSW,202,2.1,4.2,53,0.00,,,0.00,Rainwise IP-100,2013-01-30 19:16:00,
2013-01-30 11:21:00,62.6,45.0,30.31,SSW,202,0.0,5.1,53,0.00,,,0.00,Rainwise IP-100,2013-01-30 19:21:00,
2013-01-30 11:26:00,62.5,45.0,30.31,SSW,202,0.0,4.9,53,0.00,,,0.00,Rainwise IP-100,2013-01-30 19:26:00,
2013-01-30 11:31:00,62.6,45.0,30.31,SSE,157,1.9,4.0,53,0.00,,,0.00,Rainwise IP-100,2013-01-30 19:31:00,
2013-01-30 11:36:00,63.0,46.0,30.31,SSW,202,4.4,4.9,54,0.00,,,0.00,Rainwise IP-100,2013-01-30 19:36:00,
2013-01-30 11:41:00,63.2,47.0,30.31,SSW,202,4.0,5.4,55,0.00,,,0.00,Rainwise IP-100,2013-01-30 19:41:00,
2013-01-30 11:46:00,63.4,47.0,30.30,SSW,202,3.7,4.7,55,0.00,,,0.00,Rainwise IP-100,2013-01-30 19:46:00,
2013-01-30 11:51:00,63.5,47.0,30.30,SSW,202,2.1,5.4,55,0.00,,,0.00,Rainwise IP-100,2013-01-30 19:51:00,
2013-01-30 11:56:00,63.3,47.0,30.30,SSW,202,3.5,5.6,55,0.00,,,0.00,Rainwise IP-100,2013-01-30 19:56:00,
2013-01-30 12:01:00,63.0,47.0,30.29,SSW,202,4.0,6.1,55,0.00,,,0.00,Rainwise IP-100,2013-01-30 20:01:00,
2013-01-30 12:06:00,63.1,47.0,30.29,SSE,157,1.6,5.6,55,0.00,,,0.00,Rainwise IP-100,2013-01-30 20:06:00,
2013-01-30 12:11:00,63.2,47.0,30.29,SSE,157,0.0,5.6,55,0.00,,,0.00,Rainwise IP-100,2013-01-30 20:11:00,
2013-01-30 12:16:00,63.7,47.0,30.28,SSW,202,0.0,2.8,55,0.00,,,0.00,Rainwise IP-100,2013-01-30 20:16:00,
2013-01-30 12:21:00,64.4,47.5,30.28,NNW,337,3.5,4.4,54,0.00,,,0.00,Rainwise IP-100,2013-01-30 20:21:00,
2013-01-30 12:26:00,64.8,47.0,30.28,North,360,2.8,5.1,52,0.00,,,0.00,Rainwise IP-100,2013-01-30 20:26:00,
2013-01-30 12:31:00,65.0,46.0,30.28,ESE,112,2.3,4.9,50,0.00,,,0.00,Rainwise IP-100,2013-01-30 20:31:00,
2013-01-30 12:36:00,65.4,47.0,30.27,SSE,157,0.0,3.0,51,0.00,,,0.00,Rainwise IP-100,2013-01-30 20:36:00,
2013-01-30 12:41:00,66.2,47.5,30.26,SSW,202,2.1,3.7,51,0.00,,,0.00,Rainwise IP-100,2013-01-30 20:41:00,
2013-01-30 12:46:00,66.8,47.0,30.26,SSW,202,0.0,4.2,49,0.00,,,0.00,Rainwise IP-100,2013-01-30 20:46:00,
2013-01-30 12:51:00,67.2,47.0,30.26,SSW,202,2.1,5.1,48,0.00,,,0.00,Rainwise IP-100,2013-01-30 20:51:00,
2013-01-30 12:56:00,67.5,47.5,30.26,SSW,202,3.0,4.0,48,0.00,,,0.00,Rainwise IP-100,2013-01-30 20:56:00,
2013-01-30 13:01:00,67.5,47.5,30.26,SSW,202,4.0,5.8,48,0.00,,,0.00,Rainwise IP-100,2013-01-30 21:01:00,
2013-01-30 13:06:00,67.0,47.5,30.25,SSW,202,3.7,7.0,49,0.00,,,0.00,Rainwise IP-100,2013-01-30 21:06:00,
2013-01-30 13:11:00,66.4,47.5,30.25,SSW,202,2.8,6.1,51,0.00,,,0.00,Rainwise IP-100,2013-01-30 21:11:00,
2013-01-30 13:16:00,66.3,47.5,30.25,SSW,202,3.0,6.3,51,0.00,,,0.00,Rainwise IP-100,2013-01-30 21:16:00,
2013-01-30 13:21:00,66.4,47.5,30.25,SSW,202,1.4,5.6,51,0.00,,,0.00,Rainwise IP-100,2013-01-30 21:21:00,
2013-01-30 13:26:00,66.7,47.0,30.25,SSW,202,3.0,4.9,49,0.00,,,0.00,Rainwise IP-100,2013-01-30 21:26:00,
2013-01-30 13:31:00,67.0,46.0,30.24,SSW,202,1.6,4.9,47,0.00,,,0.00,Rainwise IP-100,2013-01-30 21:31:00,
2013-01-30 13:36:00,67.3,46.0,30.24,SSW,202,1.2,4.4,46,0.00,,,0.00,Rainwise IP-100,2013-01-30 21:36:00,
2013-01-30 13:41:00,67.7,46.0,30.24,SSE,157,2.8,4.7,45,0.00,,,0.00,Rainwise IP-100,2013-01-30 21:41:00,
2013-01-30 13:46:00,68.0,45.0,30.24,SSW,202,3.5,5.1,43,0.00,,,0.00,Rainwise IP-100,2013-01-30 21:46:00,
2013-01-30 13:51:00,68.2,45.0,30.24,SSW,202,4.4,6.3,43,0.00,,,0.00,Rainwise IP-100,2013-01-30 21:51:00,
2013-01-30 13:56:00,67.8,46.0,30.24,SSW,202,3.7,6.1,45,0.00,,,0.00,Rainwise IP-100,2013-01-30 21:56:00,
2013-01-30 14:01:00,67.5,45.0,30.24,SSW,202,4.0,6.8,44,0.00,,,0.00,Rainwise IP-100,2013-01-30 22:01:00,
2013-01-30 14:06:00,67.5,45.0,30.24,SSW,202,1.4,4.9,44,0.00,,,0.00,Rainwise IP-100,2013-01-30 22:06:00,
2013-01-30 14:11:00,67.3,45.0,30.24,WSW,247,4.4,5.4,44,0.00,,,0.00,Rainwise IP-100,2013-01-30 22:11:00,
2013-01-30 14:16:00,67.4,44.0,30.23,SSW,202,4.7,7.5,43,0.00,,,0.00,Rainwise IP-100,2013-01-30 22:16:00,
2013-01-30 14:21:00,67.3,44.0,30.23,SSW,202,2.8,7.2,42,0.00,,,0.00,Rainwise IP-100,2013-01-30 22:21:00,
2013-01-30 14:26:00,67.5,42.0,30.23,WSW,247,3.0,5.6,40,0.00,,,0.00,Rainwise IP-100,2013-01-30 22:26:00,
2013-01-30 14:31:00,67.6,41.0,30.23,SSW,202,2.8,7.2,38,0.00,,,0.00,Rainwise IP-100,2013-01-30 22:31:00,
2013-01-30 14:36:00,67.5,41.0,30.23,South,180,1.2,6.3,38,0.00,,,0.00,Rainwise IP-100,2013-01-30 22:36:00,
2013-01-30 14:41:00,67.9,41.0,30.22,SW,225,0.0,6.8,37,0.00,,,0.00,Rainwise IP-100,2013-01-30 22:41:00,
2013-01-30 14:46:00,68.5,40.0,30.22,WNW,292,2.6,4.9,35,0.00,,,0.00,Rainwise IP-100,2013-01-30 22:46:00,
2013-01-30 14:51:00,68.6,38.0,30.22,WNW,292,4.4,8.4,33,0.00,,,0.00,Rainwise IP-100,2013-01-30 22:51:00,
2013-01-30 14:56:00,68.3,37.0,30.22,WNW,292,1.6,6.5,32,0.00,,,0.00,Rainwise IP-100,2013-01-30 22:56:00,
2013-01-30 15:01:00,68.1,37.0,30.22,NNW,337,4.2,6.8,32,0.00,,,0.00,Rainwise IP-100,2013-01-30 23:01:00,
2013-01-30 15:06:00,68.4,37.0,30.22,SW,225,0.0,4.7,32,0.00,,,0.00,Rainwise IP-100,2013-01-30 23:06:00,
2013-01-30 15:11:00,68.9,38.0,30.22,North,360,1.6,7.9,33,0.00,,,0.00,Rainwise IP-100,2013-01-30 23:11:00,
2013-01-30 15:16:00,69.1,38.0,30.21,NNW,337,2.6,4.9,32,0.00,,,0.00,Rainwise IP-100,2013-01-30 23:16:00,
2013-01-30 15:21:00,69.2,38.0,30.21,NW,315,2.6,6.5,32,0.00,,,0.00,Rainwise IP-100,2013-01-30 23:21:00,
2013-01-30 15:26:00,69.0,38.0,30.22,SSE,157,1.4,3.0,32,0.00,,,0.00,Rainwise IP-100,2013-01-30 23:26:00,
2013-01-30 15:31:00,68.9,38.0,30.21,NW,315,0.0,5.4,32,0.00,,,0.00,Rainwise IP-100,2013-01-30 23:31:00,
2013-01-30 15:36:00,68.8,38.0,30.21,WNW,292,2.6,6.3,33,0.00,,,0.00,Rainwise IP-100,2013-01-30 23:36:00,
2013-01-30 15:41:00,68.7,38.0,30.21,SSW,202,0.0,4.0,33,0.00,,,0.00,Rainwise IP-100,2013-01-30 23:41:00,
2013-01-30 15:46:00,68.7,38.0,30.21,SW,225,1.6,2.6,33,0.00,,,0.00,Rainwise IP-100,2013-01-30 23:46:00,
2013-01-30 15:51:00,68.1,38.0,30.22,WNW,292,2.1,4.4,33,0.00,,,0.00,Rainwise IP-100,2013-01-30 23:51:00,
2013-01-30 15:56:00,67.3,37.0,30.22,WNW,292,0.0,3.5,33,0.00,,,0.00,Rainwise IP-100,2013-01-30 23:56:00,
2013-01-30 16:01:00,66.5,37.0,30.21,WNW,292,0.0,4.7,34,0.00,,,0.00,Rainwise IP-100,2013-01-31 00:01:00,
2013-01-30 16:06:00,65.9,37.0,30.21,NW,315,2.8,5.4,35,0.00,,,0.00,Rainwise IP-100,2013-01-31 00:06:00,
2013-01-30 16:11:00,65.4,37.0,30.21,WNW,292,4.2,7.2,35,0.00,,,0.00,Rainwise IP-100,2013-01-31 00:11:00,
2013-01-30 16:16:00,65.1,37.0,30.21,WNW,292,2.1,5.8,36,0.00,,,0.00,Rainwise IP-100,2013-01-31 00:16:00,
2013-01-30 16:21:00,64.8,37.0,30.21,NW,315,2.8,5.4,36,0.00,,,0.00,Rainwise IP-100,2013-01-31 00:21:00,
2013-01-30 16:26:00,64.5,38.0,30.21,NW,315,2.6,4.0,37,0.00,,,0.00,Rainwise IP-100,2013-01-31 00:26:00,
2013-01-30 16:31:00,64.3,38.0,30.22,WNW,292,0.0,3.0,37,0.00,,,0.00,Rainwise IP-100,2013-01-31 00:31:00,
2013-01-30 16:36:00,64.1,37.0,30.22,WNW,292,2.6,4.7,37,0.00,,,0.00,Rainwise IP-100,2013-01-31 00:36:00,
2013-01-30 16:41:00,63.9,37.0,30.22,WNW,292,1.4,4.2,37,0.00,,,0.00,Rainwise IP-100,2013-01-31 00:41:00,
2013-01-30 16:46:00,63.8,38.0,30.22,NNW,337,1.9,4.7,38,0.00,,,0.00,Rainwise IP-100,2013-01-31 00:46:00,
2013-01-30 16:51:00,63.6,37.0,30.21,WNW,292,2.6,3.3,38,0.00,,,0.00,Rainwise IP-100,2013-01-31 00:51:00,
2013-01-30 16:56:00,63.4,38.0,30.21,WNW,292,1.4,3.3,39,0.00,,,0.00,Rainwise IP-100,2013-01-31 00:56:00,
2013-01-30 17:01:00,63.1,38.0,30.21,WNW,292,2.6,3.5,40,0.00,,,0.00,Rainwise IP-100,2013-01-31 01:01:00,
2013-01-30 17:06:00,62.8,38.0,30.21,WNW,292,1.9,5.4,40,0.00,,,0.00,Rainwise IP-100,2013-01-31 01:06:00,
2013-01-30 17:11:00,62.6,38.0,30.22,WNW,292,2.3,4.0,40,0.00,,,0.00,Rainwise IP-100,2013-01-31 01:11:00,
2013-01-30 17:16:00,62.4,38.0,30.22,WNW,292,1.4,2.8,41,0.00,,,0.00,Rainwise IP-100,2013-01-31 01:16:00,
2013-01-30 17:21:00,62.0,39.0,30.21,WNW,292,1.9,2.1,42,0.00,,,0.00,Rainwise IP-100,2013-01-31 01:21:00,
2013-01-30 17:26:00,61.7,38.0,30.22,WNW,292,1.2,2.6,42,0.00,,,0.00,Rainwise IP-100,2013-01-31 01:26:00,
2013-01-30 17:31:00,61.3,39.0,30.22,WNW,292,1.9,2.6,43,0.00,,,0.00,Rainwise IP-100,2013-01-31 01:31:00,
2013-01-30 17:36:00,60.9,39.0,30.21,WNW,292,3.3,4.0,44,0.00,,,0.00,Rainwise IP-100,2013-01-31 01:36:00,
2013-01-30 17:41:00,60.8,38.0,30.22,WNW,292,2.3,3.5,43,0.00,,,0.00,Rainwise IP-100,2013-01-31 01:41:00,
2013-01-30 17:46:00,60.9,38.0,30.22,WNW,292,2.6,3.5,43,0.00,,,0.00,Rainwise IP-100,2013-01-31 01:46:00,
2013-01-30 17:51:00,60.9,38.0,30.22,WNW,292,3.0,4.2,43,0.00,,,0.00,Rainwise IP-100,2013-01-31 01:51:00,
2013-01-30 17:56:00,61.0,38.0,30.22,WNW,292,1.9,4.2,42,0.00,,,0.00,Rainwise IP-100,2013-01-31 01:56:00,
2013-01-30 18:01:00,61.1,38.0,30.21,WNW,292,3.0,3.0,42,0.00,,,0.00,Rainwise IP-100,2013-01-31 02:01:00,
2013-01-30 18:06:00,61.0,38.0,30.22,WNW,292,2.6,3.3,42,0.00,,,0.00,Rainwise IP-100,2013-01-31 02:06:00,
2013-01-30 18:11:00,60.8,38.0,30.22,NW,315,1.9,3.3,42,0.00,,,0.00,Rainwise IP-100,2013-01-31 02:11:00,
2013-01-30 18:16:00,60.7,37.0,30.22,NNW,337,3.3,3.7,41,0.00,,,0.00,Rainwise IP-100,2013-01-31 02:16:00,
2013-01-30 18:21:00,60.6,37.0,30.22,NW,315,2.6,3.5,41,0.00,,,0.00,Rainwise IP-100,2013-01-31 02:21:00,
2013-01-30 18:26:00,60.6,37.0,30.22,NW,315,1.9,3.7,42,0.00,,,0.00,Rainwise IP-100,2013-01-31 02:26:00,
2013-01-30 18:31:00,60.5,37.0,30.22,NNW,337,2.3,3.5,42,0.00,,,0.00,Rainwise IP-100,2013-01-31 02:31:00,
2013-01-30 18:36:00,60.4,37.0,30.22,NW,315,2.3,2.6,41,0.00,,,0.00,Rainwise IP-100,2013-01-31 02:36:00,
2013-01-30 18:41:00,60.2,36.0,30.22,NW,315,3.3,4.0,41,0.00,,,0.00,Rainwise IP-100,2013-01-31 02:41:00,
2013-01-30 18:46:00,59.9,36.0,30.22,NNW,337,4.2,4.4,41,0.00,,,0.00,Rainwise IP-100,2013-01-31 02:46:00,
2013-01-30 18:51:00,59.7,36.0,30.22,NW,315,2.8,4.7,41,0.00,,,0.00,Rainwise IP-100,2013-01-31 02:51:00,
2013-01-30 18:56:00,59.7,36.0,30.22,NW,315,3.0,4.0,41,0.00,,,0.00,Rainwise IP-100,2013-01-31 02:56:00,
2013-01-30 19:01:00,59.6,36.0,30.22,WNW,292,3.3,4.4,41,0.00,,,0.00,Rainwise IP-100,2013-01-31 03:01:00,
2013-01-30 19:06:00,59.4,36.0,30.22,NNW,337,2.1,5.4,41,0.00,,,0.00,Rainwise IP-100,2013-01-31 03:06:00,
2013-01-30 19:11:00,59.2,36.0,30.22,NNW,337,3.5,4.4,42,0.00,,,0.00,Rainwise IP-100,2013-01-31 03:11:00,
2013-01-30 19:17:00,59.1,36.0,30.22,NW,315,5.8,5.8,42,0.00,,,0.00,Rainwise IP-100,2013-01-31 03:17:00,
2013-01-30 19:22:00,59.2,37.0,30.22,NNW,337,4.0,5.8,43,0.00,,,0.00,Rainwise IP-100,2013-01-31 03:22:00,
2013-01-30 19:27:00,59.3,36.0,30.22,NNW,337,2.8,7.0,42,0.00,,,0.00,Rainwise IP-100,2013-01-31 03:27:00,
2013-01-30 19:32:00,59.3,36.0,30.22,NNW,337,0.0,4.9,42,0.00,,,0.00,Rainwise IP-100,2013-01-31 03:32:00,
2013-01-30 19:37:00,58.9,37.0,30.22,NNW,337,0.0,3.5,44,0.00,,,0.00,Rainwise IP-100,2013-01-31 03:37:00,
2013-01-30 19:42:00,58.1,39.0,30.23,NNW,337,0.0,0.0,48,0.00,,,0.00,Rainwise IP-100,2013-01-31 03:42:00,
2013-01-30 19:47:00,56.9,39.0,30.22,WNW,292,3.5,5.4,50,0.00,,,0.00,Rainwise IP-100,2013-01-31 03:47:00,
2013-01-30 19:52:00,56.7,37.0,30.22,North,360,3.0,6.3,48,0.00,,,0.00,Rainwise IP-100,2013-01-31 03:52:00,
2013-01-30 19:57:00,57.5,38.0,30.23,WNW,292,3.7,6.3,47,0.00,,,0.00,Rainwise IP-100,2013-01-31 03:57:00,
2013-01-30 20:02:00,58.1,38.0,30.23,WNW,292,3.5,4.4,47,0.00,,,0.00,Rainwise IP-100,2013-01-31 04:02:00,
2013-01-30 20:07:00,58.2,38.0,30.24,WNW,292,0.0,3.5,47,0.00,,,0.00,Rainwise IP-100,2013-01-31 04:07:00,
2013-01-30 20:12:00,57.7,39.0,30.23,WNW,292,0.0,0.0,49,0.00,,,0.00,Rainwise IP-100,2013-01-31 04:12:00,
2013-01-30 20:17:00,56.7,38.0,30.23,NW,315,1.4,4.4,51,0.00,,,0.00,Rainwise IP-100,2013-01-31 04:17:00,
2013-01-30 20:22:00,56.5,38.0,30.24,WNW,292,1.6,3.5,51,0.00,,,0.00,Rainwise IP-100,2013-01-31 04:22:00,
2013-01-30 20:27:00,57.0,38.0,30.23,WNW,292,0.0,2.3,49,0.00,,,0.00,Rainwise IP-100,2013-01-31 04:27:00,
2013-01-30 20:32:00,56.6,38.0,30.24,WNW,292,0.0,0.0,50,0.00,,,0.00,Rainwise IP-100,2013-01-31 04:32:00,
2013-01-30 20:37:00,55.6,39.0,30.24,WNW,292,0.0,1.4,53,0.00,,,0.00,Rainwise IP-100,2013-01-31 04:37:00,
2013-01-30 20:42:00,54.8,40.0,30.24,WNW,292,0.0,1.9,56,0.00,,,0.00,Rainwise IP-100,2013-01-31 04:42:00,
2013-01-30 20:47:00,54.1,39.0,30.24,WNW,292,0.0,0.0,57,0.00,,,0.00,Rainwise IP-100,2013-01-31 04:47:00,
2013-01-30 20:52:00,53.6,38.0,30.25,WNW,292,0.0,0.0,57,0.00,,,0.00,Rainwise IP-100,2013-01-31 04:52:00,
2013-01-30 20:57:00,53.2,38.0,30.25,WNW,292,0.0,0.0,58,0.00,,,0.00,Rainwise IP-100,2013-01-31 04:57:00,
2013-01-30 21:00:00,52.9,38.0,30.25,WNW,292,0.0,0.0,58,0.00,,,0.00,Rainwise IP-100,2013-01-31 05:00:00,
2013-01-30 21:01:00,52.8,38.0,30.25,WNW,292,0.0,0.0,58,0.00,,,0.00,Rainwise IP-100,2013-01-31 05:01:00,
2013-01-30 21:06:00,52.3,38.0,30.25,WNW,292,0.0,0.0,60,0.00,,,0.00,Rainwise IP-100,2013-01-31 05:06:00,
2013-01-30 21:11:00,52.0,39.0,30.25,WNW,292,1.4,1.9,62,0.00,,,0.00,Rainwise IP-100,2013-01-31 05:11:00,
2013-01-30 21:16:00,51.7,40.0,30.25,WNW,292,2.1,2.1,63,0.00,,,0.00,Rainwise IP-100,2013-01-31 05:16:00,
2013-01-30 21:21:00,51.8,39.0,30.25,WNW,292,0.0,2.6,62,0.00,,,0.00,Rainwise IP-100,2013-01-31 05:21:00,
2013-01-30 21:26:00,52.3,39.0,30.25,WNW,292,0.0,2.1,62,0.00,,,0.00,Rainwise IP-100,2013-01-31 05:26:00,
2013-01-30 21:31:00,52.5,39.0,30.25,WNW,292,0.0,1.6,61,0.00,,,0.00,Rainwise IP-100,2013-01-31 05:31:00,
2013-01-30 21:36:00,52.6,39.0,30.25,WNW,292,0.0,1.9,61,0.00,,,0.00,Rainwise IP-100,2013-01-31 05:36:00,
2013-01-30 21:41:00,52.7,39.0,30.26,NNW,337,0.0,2.8,60,0.00,,,0.00,Rainwise IP-100,2013-01-31 05:41:00,
2013-01-30 21:46:00,52.8,39.0,30.26,NNW,337,0.0,0.0,61,0.00,,,0.00,Rainwise IP-100,2013-01-31 05:46:00,
2013-01-30 21:51:00,52.7,40.0,30.25,NNW,337,0.0,0.0,62,0.00,,,0.00,Rainwise IP-100,2013-01-31 05:51:00,
2013-01-30 21:56:00,52.2,39.0,30.25,NNW,337,0.0,0.0,62,0.00,,,0.00,Rainwise IP-100,2013-01-31 05:56:00,
2013-01-30 22:01:00,51.5,40.0,30.25,NNW,337,0.0,0.0,63,0.00,,,0.00,Rainwise IP-100,2013-01-31 06:01:00,
2013-01-30 22:06:00,50.8,40.0,30.25,NNW,337,0.0,0.0,65,0.00,,,0.00,Rainwise IP-100,2013-01-31 06:06:00,
2013-01-30 22:11:00,50.2,39.0,30.25,NNW,337,0.0,0.0,67,0.00,,,0.00,Rainwise IP-100,2013-01-31 06:11:00,
2013-01-30 22:16:00,49.9,39.0,30.25,NNW,337,0.0,0.0,68,0.00,,,0.00,Rainwise IP-100,2013-01-31 06:16:00,
2013-01-30 22:21:00,49.9,39.0,30.25,NNW,337,0.0,0.0,68,0.00,,,0.00,Rainwise IP-100,2013-01-31 06:21:00,
2013-01-30 22:26:00,50.1,39.0,30.25,NNW,337,0.0,0.0,67,0.00,,,0.00,Rainwise IP-100,2013-01-31 06:26:00,
2013-01-30 22:31:00,50.5,40.0,30.25,SSW,202,1.6,1.9,67,0.00,,,0.00,Rainwise IP-100,2013-01-31 06:31:00,
2013-01-30 22:36:00,50.3,40.0,30.25,SSW,202,0.0,2.8,67,0.00,,,0.00,Rainwise IP-100,2013-01-31 06:36:00,
2013-01-30 22:41:00,49.5,40.0,30.25,SSW,202,0.0,0.0,69,0.00,,,0.00,Rainwise IP-100,2013-01-31 06:41:00,
2013-01-30 22:46:00,49.0,40.0,30.25,SSW,202,0.0,0.0,70,0.00,,,0.00,Rainwise IP-100,2013-01-31 06:46:00,
2013-01-30 22:51:00,48.5,40.0,30.25,SSW,202,0.0,0.0,71,0.00,,,0.00,Rainwise IP-100,2013-01-31 06:51:00,
2013-01-30 22:56:00,48.1,40.0,30.25,SSW,202,0.0,0.0,73,0.00,,,0.00,Rainwise IP-100,2013-01-31 06:56:00,
2013-01-30 23:01:00,48.0,40.0,30.25,SSW,202,0.0,0.0,74,0.00,,,0.00,Rainwise IP-100,2013-01-31 07:01:00,
2013-01-30 23:06:00,48.0,40.0,30.24,SSW,202,0.0,0.0,74,0.00,,,0.00,Rainwise IP-100,2013-01-31 07:06:00,
2013-01-30 23:11:00,48.1,40.0,30.24,SSW,202,0.0,0.0,74,0.00,,,0.00,Rainwise IP-100,2013-01-31 07:11:00,
2013-01-30 23:16:00,48.1,40.0,30.24,SSW,202,0.0,0.0,74,0.00,,,0.00,Rainwise IP-100,2013-01-31 07:16:00,
2013-01-30 23:21:00,48.1,40.0,30.24,SSW,202,0.0,0.0,74,0.00,,,0.00,Rainwise IP-100,2013-01-31 07:21:00,
2013-01-30 23:26:00,48.2,40.0,30.24,SSW,202,0.0,0.0,74,0.00,,,0.00,Rainwise IP-100,2013-01-31 07:26:00,
2013-01-30 23:31:00,48.0,41.0,30.24,SSW,202,0.0,0.0,75,0.00,,,0.00,Rainwise IP-100,2013-01-31 07:31:00,
2013-01-30 23:36:00,47.6,40.0,30.24,SSW,202,0.0,0.0,76,0.00,,,0.00,Rainwise IP-100,2013-01-31 07:36:00,
2013-01-30 23:41:00,47.2,39.0,30.24,SSW,202,0.0,0.0,76,0.00,,,0.00,Rainwise IP-100,2013-01-31 07:41:00,
2013-01-30 23:46:00,46.8,40.0,30.24,SSW,202,0.0,0.0,77,0.00,,,0.00,Rainwise IP-100,2013-01-31 07:46:00,
2013-01-30 23:51:00,46.4,39.0,30.24,SSW,202,0.0,0.0,78,0.00,,,0.00,Rainwise IP-100,2013-01-31 07:51:00,
2013-01-30 23:56:00,46.1,39.0,30.24,North,360,0.0,1.4,79,0.00,,,0.00,Rainwise IP-100,2013-01-31 07:56:00,